Time;durP1;ratioP1;P1;durP2;ratioP2;P2;SDS_P1;SDS_P2;PMS_P1;PMS_P2;Temp;Humidity;BMP_temperature;BMP_pressure;BME280_temperature;BME280_humidity;BME280_pressure;Samples;Min_cycle;Max_cycle;Signal;HPM_P1;HPM_P2
2022/09/11 00:01:26;;;;;;;;;;;20.50;65.50;;;;;;5093645;28;19963;-66
2022/09/11 00:03:53;;;;;;;;;;;20.50;65.50;;;;;;5075356;28;19920;-66
2022/09/11 00:06:19;;;;;;;;;;;20.50;65.50;;;;;;5093938;28;19920;-66
2022/09/11 00:08:45;;;;;;;;;;;20.50;65.50;;;;;;5075053;28;20390;-66
2022/09/11 00:11:12;;;;;;;;;;;20.50;65.50;;;;;;5093314;28;19920;-66
2022/09/11 00:13:38;;;;;;;;;;;20.50;65.50;;;;;;5075223;28;20003;-66
2022/09/11 00:16:05;;;;;;;;;;;20.50;65.50;;;;;;5092350;28;20045;-66
2022/09/11 00:18:34;;;;;;;;;;;20.50;65.50;;;;;;5093047;28;20292;-66
2022/09/11 00:21:00;;;;;;;;;;;20.50;65.50;;;;;;5075034;28;20086;-66
2022/09/11 00:23:27;;;;;;;;;;;20.50;65.50;;;;;;5093161;28;19923;-66
2022/09/11 00:25:53;;;;;;;;;;;20.50;65.50;;;;;;5075063;28;19920;-66
2022/09/11 00:28:19;;;;;;;;;;;20.50;66.30;;;;;;5074733;28;19920;-66
2022/09/11 00:30:46;;;;;;;;;;;20.50;65.60;;;;;;5074697;28;19966;-66
2022/09/11 00:33:12;;;;;;;;;;;20.40;65.50;;;;;;5074832;28;20410;-66
2022/09/11 00:35:38;;;;;;;;;;;20.50;65.60;;;;;;5075091;28;20325;-66
2022/09/11 00:38:04;;;;;;;;;;;20.40;65.50;;;;;;5074864;28;19924;-66
2022/09/11 00:40:30;;;;;;;;;;;20.40;65.50;;;;;;5074891;28;19920;-66
2022/09/11 00:42:57;;;;;;;;;;;20.40;65.50;;;;;;5092993;28;20372;-66
2022/09/11 00:45:24;;;;;;;;;;;20.50;65.60;;;;;;5075033;28;20376;-66
2022/09/11 00:47:51;;;;;;;;;;;20.40;65.50;;;;;;5092730;28;19927;-66
2022/09/11 00:50:19;;;;;;;;;;;20.40;65.40;;;;;;5074864;28;19927;-66
2022/09/11 00:53:06;;;;;;;;;;;20.40;65.50;;;;;;5074901;28;20027;-66
2022/09/11 00:55:34;;;;;;;;;;;20.40;65.50;;;;;;5092641;28;19920;-66
2022/09/11 00:58:02;;;;;;;;;;;20.40;65.50;;;;;;5074480;28;19931;-66
2022/09/11 01:00:28;;;;;;;;;;;20.40;65.50;;;;;;5092534;28;19963;-66
2022/09/11 01:02:54;;;;;;;;;;;20.40;65.50;;;;;;5074762;28;20017;-66
2022/09/11 01:05:21;;;;;;;;;;;20.40;65.50;;;;;;5092489;28;19920;-66
2022/09/11 01:07:48;;;;;;;;;;;20.40;65.50;;;;;;5092457;28;19962;-66
2022/09/11 01:10:14;;;;;;;;;;;20.40;65.50;;;;;;5074649;28;19920;-66
2022/09/11 01:12:51;;;;;;;;;;;20.40;65.50;;;;;;5074320;28;20288;-71
2022/09/11 01:21:15;;;;;;;;;;;20.30;65.50;;;;;;5089950;28;19913;-66
2022/09/11 01:24:00;;;;;;;;;;;20.40;65.50;;;;;;5105507;28;19947;-66
2022/09/11 01:29:19;;;;;;;;;;;20.30;65.50;;;;;;5089907;28;20283;-66
2022/09/11 01:31:51;;;;;;;;;;;20.40;65.50;;;;;;5088466;28;19924;-66
2022/09/11 01:37:03;;;;;;;;;;;20.30;65.50;;;;;;5089822;28;19919;-66
2022/09/11 01:39:31;;;;;;;;;;;20.30;65.50;;;;;;5089940;28;20395;-66
2022/09/11 01:42:02;;;;;;;;;;;20.30;65.50;;;;;;5088494;28;19920;-66
2022/09/11 01:44:33;;;;;;;;;;;20.30;65.50;;;;;;5088503;28;20423;-66
2022/09/11 01:47:01;;;;;;;;;;;20.30;65.40;;;;;;5088775;28;19929;-66
2022/09/11 01:49:30;;;;;;;;;;;20.30;65.50;;;;;;5088496;28;19920;-66
2022/09/11 01:52:01;;;;;;;;;;;20.30;65.40;;;;;;5088570;28;19946;-66
2022/09/11 01:54:30;;;;;;;;;;;20.30;65.50;;;;;;5089549;28;20354;-66
2022/09/11 01:57:01;;;;;;;;;;;20.30;65.40;;;;;;5088224;28;19920;-66
2022/09/11 01:59:32;;;;;;;;;;;20.30;65.50;;;;;;5088216;28;19969;-66
2022/09/11 02:02:01;;;;;;;;;;;20.30;65.50;;;;;;5088447;28;19924;-66
2022/09/11 02:04:30;;;;;;;;;;;20.30;65.40;;;;;;5089445;28;20192;-71
2022/09/11 02:07:01;;;;;;;;;;;20.30;65.50;;;;;;5089565;28;19973;-66
2022/09/11 02:09:33;;;;;;;;;;;20.30;65.40;;;;;;5089415;28;20276;-66
2022/09/11 02:12:01;;;;;;;;;;;20.30;65.50;;;;;;5089377;28;19999;-66
2022/09/11 02:19:48;;;;;;;;;;;20.20;65.40;;;;;;5089856;28;19913;-66
2022/09/11 02:22:13;;;;;;;;;;;20.20;65.40;;;;;;5088561;28;19926;-66
2022/09/11 02:24:39;;;;;;;;;;;20.20;65.40;;;;;;5088479;28;20015;-66
2022/09/11 02:27:07;;;;;;;;;;;20.30;65.50;;;;;;5088805;28;19971;-67
2022/09/11 02:29:33;;;;;;;;;;;20.30;65.50;;;;;;5088497;28;20356;-66
2022/09/11 02:31:59;;;;;;;;;;;20.20;65.40;;;;;;5088623;28;19931;-66
2022/09/11 02:34:26;;;;;;;;;;;20.20;65.40;;;;;;5088289;28;19920;-66
2022/09/11 02:37:11;;;;;;;;;;;20.20;65.40;;;;;;5088572;28;20000;-66
2022/09/11 02:42:29;;;;;;;;;;;20.20;65.40;;;;;;5089879;28;19912;-66
2022/09/11 02:58:34;;;;;;;;;;;20.20;65.30;;;;;;5110265;27;19912;-66
2022/09/11 03:01:00;;;;;;;;;;;20.20;65.30;;;;;;5110096;28;19927;-66
2022/09/11 03:03:26;;;;;;;;;;;20.20;65.30;;;;;;5109173;28;19924;-66
2022/09/11 03:05:51;;;;;;;;;;;20.20;65.30;;;;;;5108741;28;19924;-66
2022/09/11 03:08:17;;;;;;;;;;;20.10;65.30;;;;;;5108734;28;19923;-66
2022/09/11 03:10:45;;;;;;;;;;;20.10;65.30;;;;;;5108039;28;19924;-66
2022/09/11 03:13:11;;;;;;;;;;;20.10;65.30;;;;;;5108538;28;19924;-66
2022/09/11 03:15:37;;;;;;;;;;;20.10;65.30;;;;;;5108824;28;19958;-66
2022/09/11 03:18:04;;;;;;;;;;;20.20;65.40;;;;;;5109744;28;19967;-67
2022/09/11 03:20:30;;;;;;;;;;;20.10;65.30;;;;;;5108475;28;20390;-66
2022/09/11 03:22:55;;;;;;;;;;;20.10;65.30;;;;;;5108805;28;20015;-66
2022/09/11 03:25:26;;;;;;;;;;;20.10;65.30;;;;;;5108719;28;20006;-66
2022/09/11 03:27:53;;;;;;;;;;;20.10;65.30;;;;;;5109767;28;19931;-66
2022/09/11 03:30:19;;;;;;;;;;;20.10;65.30;;;;;;5108603;28;20360;-66
2022/09/11 03:32:44;;;;;;;;;;;20.10;65.30;;;;;;5109504;28;19927;-66
2022/09/11 03:35:10;;;;;;;;;;;20.10;65.30;;;;;;5108283;28;19920;-71
2022/09/11 03:37:35;;;;;;;;;;;20.10;65.30;;;;;;5108228;28;19924;-66
2022/09/11 03:40:01;;;;;;;;;;;20.10;65.30;;;;;;5109517;28;20406;-66
2022/09/11 03:42:27;;;;;;;;;;;20.10;65.30;;;;;;5108107;28;19923;-66
2022/09/11 03:44:53;;;;;;;;;;;20.10;65.30;;;;;;5109360;28;19924;-66
2022/09/11 03:47:21;;;;;;;;;;;20.20;65.30;;;;;;5108259;28;19981;-66
2022/09/11 03:49:47;;;;;;;;;;;20.10;65.30;;;;;;5108012;28;19931;-66
2022/09/11 03:52:13;;;;;;;;;;;20.10;65.30;;;;;;5108218;28;19924;-70
2022/09/11 03:54:38;;;;;;;;;;;20.00;65.20;;;;;;5107887;28;19989;-66
2022/09/11 03:57:04;;;;;;;;;;;20.00;65.20;;;;;;5107672;28;19955;-66
2022/09/11 03:59:30;;;;;;;;;;;20.10;65.20;;;;;;5109498;28;19939;-66
2022/09/11 04:01:55;;;;;;;;;;;20.10;65.30;;;;;;5107924;28;20010;-66
2022/09/11 04:04:21;;;;;;;;;;;20.00;65.30;;;;;;5109008;28;20561;-66
2022/09/11 04:06:47;;;;;;;;;;;20.00;65.20;;;;;;5107890;28;20416;-66
2022/09/11 04:09:12;;;;;;;;;;;20.00;65.20;;;;;;5098737;28;20338;-66
2022/09/11 04:11:39;;;;;;;;;;;20.00;65.20;;;;;;5094279;28;20295;-66
2022/09/11 04:14:06;;;;;;;;;;;20.00;65.20;;;;;;5095243;28;19967;-66
2022/09/11 04:16:32;;;;;;;;;;;20.00;65.20;;;;;;5094025;28;20460;-66
2022/09/11 04:18:59;;;;;;;;;;;20.00;65.20;;;;;;5093713;28;19966;-66
2022/09/11 04:21:26;;;;;;;;;;;20.00;65.20;;;;;;5127960;27;19920;-66
2022/09/11 04:23:55;;;;;;;;;;;20.00;65.10;;;;;;5093654;28;20427;-66
2022/09/11 04:26:21;;;;;;;;;;;20.00;65.20;;;;;;5095251;28;20348;-66
2022/09/11 04:28:47;;;;;;;;;;;20.00;65.20;;;;;;5093949;28;19969;-66
2022/09/11 04:31:13;;;;;;;;;;;20.00;65.10;;;;;;5093614;28;19920;-66
2022/09/11 04:33:39;;;;;;;;;;;20.00;65.20;;;;;;5095329;28;19986;-66
2022/09/11 04:36:06;;;;;;;;;;;19.90;65.10;;;;;;5095067;28;19923;-66
2022/09/11 04:38:32;;;;;;;;;;;20.00;65.20;;;;;;5093794;28;19970;-66
2022/09/11 04:41:02;;;;;;;;;;;19.90;65.20;;;;;;5094911;28;19920;-66
2022/09/11 04:43:30;;;;;;;;;;;19.90;65.10;;;;;;5093702;28;19920;-66
2022/09/11 04:46:12;;;;;;;;;;;20.00;65.10;;;;;;5094766;28;19965;-66
2022/09/11 04:48:54;;;;;;;;;;;19.90;65.10;;;;;;5093898;28;20394;-66
2022/09/11 04:54:01;;;;;;;;;;;19.90;65.10;;;;;;5089884;28;19913;-66
2022/09/11 04:56:28;;;;;;;;;;;19.90;65.10;;;;;;5088889;28;19927;-66
2022/09/11 04:58:55;;;;;;;;;;;19.90;65.10;;;;;;5088746;28;20354;-66
2022/09/11 05:01:21;;;;;;;;;;;19.90;65.10;;;;;;5089819;28;19926;-66
2022/09/11 05:03:47;;;;;;;;;;;19.90;65.10;;;;;;5088770;28;20003;-66
2022/09/11 05:06:15;;;;;;;;;;;19.90;65.10;;;;;;5088414;28;19920;-66
2022/09/11 05:08:43;;;;;;;;;;;19.90;65.10;;;;;;5088577;28;19999;-66
2022/09/11 05:11:13;;;;;;;;;;;19.90;65.10;;;;;;5088354;28;20376;-66
2022/09/11 05:13:39;;;;;;;;;;;19.90;65.00;;;;;;5088197;28;19959;-66
2022/09/11 05:16:08;;;;;;;;;;;19.90;65.00;;;;;;5089581;28;19947;-66
2022/09/11 05:18:33;;;;;;;;;;;19.90;65.00;;;;;;5088369;28;19925;-66
2022/09/11 05:21:00;;;;;;;;;;;19.90;65.00;;;;;;5088383;28;19998;-66
2022/09/11 05:23:26;;;;;;;;;;;19.90;65.00;;;;;;5088460;28;19989;-66
2022/09/11 05:25:56;;;;;;;;;;;19.90;65.10;;;;;;5089667;28;19966;-66
2022/09/11 05:28:22;;;;;;;;;;;19.90;65.00;;;;;;5087972;28;19980;-66
2022/09/11 05:30:48;;;;;;;;;;;19.80;64.90;;;;;;5088099;28;19963;-66
2022/09/11 05:33:14;;;;;;;;;;;19.80;64.90;;;;;;5087758;28;19963;-66
2022/09/11 05:35:39;;;;;;;;;;;19.80;64.90;;;;;;5087783;28;19928;-66
2022/09/11 05:38:05;;;;;;;;;;;19.80;64.90;;;;;;5087848;28;19927;-66
2022/09/11 05:40:30;;;;;;;;;;;19.80;64.90;;;;;;5088968;28;19963;-66
2022/09/11 05:42:56;;;;;;;;;;;19.80;64.90;;;;;;5088879;28;19920;-66
2022/09/11 05:45:21;;;;;;;;;;;19.80;64.90;;;;;;5087880;28;20024;-66
2022/09/11 05:47:47;;;;;;;;;;;19.80;64.90;;;;;;5087895;28;20424;-71
2022/09/11 05:50:13;;;;;;;;;;;19.80;64.80;;;;;;5087489;28;19967;-66
2022/09/11 05:52:39;;;;;;;;;;;19.80;64.80;;;;;;5097814;28;19924;-66
2022/09/11 05:55:05;;;;;;;;;;;19.80;64.80;;;;;;5108943;28;19924;-66
2022/09/11 05:57:31;;;;;;;;;;;19.80;64.80;;;;;;5108957;28;19920;-66
2022/09/11 05:59:57;;;;;;;;;;;19.80;64.80;;;;;;5090935;28;19920;-66
2022/09/11 06:02:23;;;;;;;;;;;19.80;64.80;;;;;;5109004;28;20427;-66
2022/09/11 06:04:48;;;;;;;;;;;19.80;64.80;;;;;;5098431;28;19920;-66
2022/09/11 06:07:14;;;;;;;;;;;19.80;64.80;;;;;;5095326;28;19924;-66
2022/09/11 06:09:39;;;;;;;;;;;19.80;64.80;;;;;;5093939;28;19969;-66
2022/09/11 06:12:05;;;;;;;;;;;19.80;64.80;;;;;;5095048;28;19930;-67
2022/09/11 06:14:30;;;;;;;;;;;19.70;64.70;;;;;;5077259;28;20364;-66
2022/09/11 06:16:56;;;;;;;;;;;19.80;64.70;;;;;;5095033;28;19927;-67
2022/09/11 06:19:22;;;;;;;;;;;19.80;64.70;;;;;;5077297;28;19920;-66
2022/09/11 06:21:49;;;;;;;;;;;19.80;64.70;;;;;;5095186;28;20391;-66
2022/09/11 06:24:14;;;;;;;;;;;19.80;64.70;;;;;;5095019;28;19927;-66
2022/09/11 06:26:40;;;;;;;;;;;19.80;64.70;;;;;;5095060;28;19920;-71
2022/09/11 06:29:06;;;;;;;;;;;19.80;64.60;;;;;;5076979;28;19928;-66
2022/09/11 06:31:32;;;;;;;;;;;19.80;64.60;;;;;;5077222;28;20294;-66
2022/09/11 06:33:57;;;;;;;;;;;19.80;64.60;;;;;;5094813;28;19931;-66
2022/09/11 06:36:28;;;;;;;;;;;19.80;64.60;;;;;;5076868;28;20347;-66
2022/09/11 06:38:56;;;;;;;;;;;19.80;64.60;;;;;;5076595;28;19993;-66
2022/09/11 06:41:23;;;;;;;;;;;19.80;64.60;;;;;;5094668;28;19920;-67
2022/09/11 06:43:49;;;;;;;;;;;19.80;64.60;;;;;;5076436;28;20364;-66
2022/09/11 06:46:17;;;;;;;;;;;19.80;64.50;;;;;;5076764;28;19920;-66
2022/09/11 06:48:45;;;;;;;;;;;19.80;64.50;;;;;;5076933;28;19967;-66
2022/09/11 06:51:11;;;;;;;;;;;19.80;64.50;;;;;;5076430;28;19955;-66
2022/09/11 06:53:37;;;;;;;;;;;19.80;64.50;;;;;;5072617;28;19925;-66
2022/09/11 06:56:03;;;;;;;;;;;19.80;64.50;;;;;;5073175;28;19928;-66
2022/09/11 06:58:30;;;;;;;;;;;19.80;64.40;;;;;;5072930;28;20000;-66
2022/09/11 07:01:00;;;;;;;;;;;19.80;65.10;;;;;;5074279;28;19921;-66
2022/09/11 07:03:25;;;;;;;;;;;19.80;64.40;;;;;;5074180;28;20498;-67
2022/09/11 07:05:51;;;;;;;;;;;19.80;64.40;;;;;;5072985;28;19992;-66
2022/09/11 07:08:16;;;;;;;;;;;19.80;64.30;;;;;;5073776;28;19928;-66
2022/09/11 07:10:42;;;;;;;;;;;19.80;64.30;;;;;;5073829;28;19963;-66
2022/09/11 07:13:07;;;;;;;;;;;19.80;64.30;;;;;;5072910;28;19924;-67
2022/09/11 07:15:33;;;;;;;;;;;19.80;64.30;;;;;;5072590;28;20402;-66
2022/09/11 07:18:00;;;;;;;;;;;19.90;64.30;;;;;;5072342;28;20388;-66
2022/09/11 07:20:26;;;;;;;;;;;19.90;64.30;;;;;;5073700;28;20298;-66
2022/09/11 07:22:51;;;;;;;;;;;19.90;64.30;;;;;;5073726;28;20054;-66
2022/09/11 07:25:17;;;;;;;;;;;19.90;64.30;;;;;;5073554;28;19920;-66
2022/09/11 07:27:43;;;;;;;;;;;19.90;64.30;;;;;;5072453;28;19982;-66
2022/09/11 07:30:08;;;;;;;;;;;19.90;64.20;;;;;;5072091;28;19939;-66
2022/09/11 07:32:34;;;;;;;;;;;19.90;64.20;;;;;;5072064;28;19973;-66
2022/09/11 07:35:01;;;;;;;;;;;19.90;64.20;;;;;;5072323;28;19920;-71
2022/09/11 07:37:26;;;;;;;;;;;19.90;64.20;;;;;;5072362;28;20019;-66
2022/09/11 07:39:52;;;;;;;;;;;19.90;64.20;;;;;;5073255;28;20017;-66
2022/09/11 07:42:17;;;;;;;;;;;19.80;64.10;;;;;;5073171;28;19921;-66
2022/09/11 07:44:43;;;;;;;;;;;19.90;64.20;;;;;;5071998;28;19998;-66
2022/09/11 07:47:08;;;;;;;;;;;19.90;64.90;;;;;;5071891;28;19927;-66
2022/09/11 07:49:34;;;;;;;;;;;19.90;64.10;;;;;;5071751;28;20098;-66
2022/09/11 07:52:02;;;;;;;;;;;19.90;64.10;;;;;;5071713;28;20011;-66
2022/09/11 07:54:28;;;;;;;;;;;19.90;64.10;;;;;;5071992;28;20296;-66
2022/09/11 07:56:54;;;;;;;;;;;20.00;64.10;;;;;;5071631;28;19920;-66
2022/09/11 07:59:21;;;;;;;;;;;19.90;64.10;;;;;;5072797;28;19921;-66
2022/09/11 08:01:48;;;;;;;;;;;20.00;64.10;;;;;;5071887;28;19931;-66
2022/09/11 08:04:14;;;;;;;;;;;19.90;64.00;;;;;;5071555;28;19920;-66
2022/09/11 08:06:40;;;;;;;;;;;20.00;64.10;;;;;;5071697;28;19965;-66
2022/09/11 08:09:08;;;;;;;;;;;20.00;64.00;;;;;;5071719;28;19921;-66
2022/09/11 08:11:36;;;;;;;;;;;20.00;64.10;;;;;;5071701;28;19925;-66
2022/09/11 08:14:01;;;;;;;;;;;20.00;64.10;;;;;;5072586;28;19924;-66
2022/09/11 08:16:27;;;;;;;;;;;20.00;63.90;;;;;;5073160;28;20062;-66
2022/09/11 08:18:53;;;;;;;;;;;20.00;63.90;;;;;;5071414;28;19924;-66
2022/09/11 08:21:19;;;;;;;;;;;20.00;63.90;;;;;;5071187;28;20434;-66
2022/09/11 08:23:45;;;;;;;;;;;20.00;63.90;;;;;;5071312;28;19999;-66
2022/09/11 08:26:13;;;;;;;;;;;20.00;63.90;;;;;;5072441;28;20023;-66
2022/09/11 08:28:41;;;;;;;;;;;20.10;63.90;;;;;;5071028;28;19921;-66
2022/09/11 08:31:07;;;;;;;;;;;20.00;63.80;;;;;;5071401;28;20557;-66
2022/09/11 08:33:32;;;;;;;;;;;20.00;63.80;;;;;;5071166;28;20268;-66
2022/09/11 08:35:58;;;;;;;;;;;20.10;63.90;;;;;;5072242;28;19924;-66
2022/09/11 08:38:24;;;;;;;;;;;20.00;63.80;;;;;;5071423;28;19921;-66
2022/09/11 08:40:50;;;;;;;;;;;20.10;63.80;;;;;;5071375;28;19927;-66
2022/09/11 08:43:21;;;;;;;;;;;20.10;63.80;;;;;;5071385;28;20322;-66
2022/09/11 08:45:47;;;;;;;;;;;20.10;63.70;;;;;;5071266;28;20014;-66
2022/09/11 08:48:13;;;;;;;;;;;20.10;63.70;;;;;;5071029;28;19970;-66
2022/09/11 08:50:40;;;;;;;;;;;20.10;63.70;;;;;;5071245;28;19920;-66
2022/09/11 08:53:08;;;;;;;;;;;20.10;63.60;;;;;;5084904;28;20113;-66
2022/09/11 08:55:38;;;;;;;;;;;20.20;63.60;;;;;;5092371;28;19920;-66
2022/09/11 08:58:11;;;;;;;;;;;20.20;63.50;;;;;;5092220;28;20361;-66
2022/09/11 09:00:41;;;;;;;;;;;20.20;63.50;;;;;;5074172;28;19927;-66
2022/09/11 09:06:10;;;;;;;;;;;20.20;63.40;;;;;;5089877;28;19918;-66
2022/09/11 09:14:16;;;;;;;;;;;20.30;63.20;;;;;;5089954;28;19912;-66
2022/09/11 09:17:02;;;;;;;;;;;20.20;63.00;;;;;;5105162;28;19956;-66
2022/09/11 09:19:32;;;;;;;;;;;20.30;63.10;;;;;;5088681;28;19920;-66
2022/09/11 09:24:41;;;;;;;;;;;20.30;63.00;;;;;;5089921;28;19912;-66
2022/09/11 09:27:10;;;;;;;;;;;20.30;63.00;;;;;;5088556;28;19946;-66
2022/09/11 09:29:37;;;;;;;;;;;20.30;63.00;;;;;;5088816;28;19966;-66
2022/09/11 09:32:05;;;;;;;;;;;20.30;63.00;;;;;;5088735;28;19974;-66
2022/09/11 09:34:33;;;;;;;;;;;20.30;63.00;;;;;;5089941;28;20290;-66
2022/09/11 09:37:03;;;;;;;;;;;20.30;63.00;;;;;;5088427;28;19981;-66
2022/09/11 09:39:29;;;;;;;;;;;20.40;63.00;;;;;;5088426;28;20372;-66
2022/09/11 09:47:21;;;;;;;;;;;20.40;62.70;;;;;;5090049;28;19919;-66
2022/09/11 09:49:48;;;;;;;;;;;20.40;62.50;;;;;;5088666;28;20011;-66
2022/09/11 09:52:17;;;;;;;;;;;20.50;62.60;;;;;;5088493;28;19928;-66
2022/09/11 09:54:45;;;;;;;;;;;20.50;62.50;;;;;;5088554;28;19946;-66
2022/09/11 09:57:11;;;;;;;;;;;20.50;62.50;;;;;;5088453;28;20007;-72
2022/09/11 10:02:38;;;;;;;;;;;20.50;62.30;;;;;;5110292;27;19919;-66
2022/09/11 10:05:07;;;;;;;;;;;20.50;62.20;;;;;;5109170;28;20307;-66
2022/09/11 10:07:32;;;;;;;;;;;20.60;62.30;;;;;;5108924;28;19924;-66
2022/09/11 10:10:02;;;;;;;;;;;20.60;62.20;;;;;;5108896;28;19920;-66
2022/09/11 10:12:30;;;;;;;;;;;20.60;62.20;;;;;;5109107;28;19920;-66
2022/09/11 10:14:57;;;;;;;;;;;20.50;62.10;;;;;;5108794;28;19962;-66
2022/09/11 10:17:30;;;;;;;;;;;20.60;62.10;;;;;;5109075;28;19955;-66
2022/09/11 10:20:11;;;;;;;;;;;20.60;62.10;;;;;;5108554;28;19920;-71
2022/09/11 10:22:36;;;;;;;;;;;20.60;62.00;;;;;;5109000;28;19924;-66
2022/09/11 10:25:04;;;;;;;;;;;20.60;62.00;;;;;;5109833;28;19920;-66
2022/09/11 10:27:33;;;;;;;;;;;20.60;62.00;;;;;;5108952;28;20321;-66
2022/09/11 10:29:59;;;;;;;;;;;20.70;62.00;;;;;;5108614;28;19928;-66
2022/09/11 10:32:25;;;;;;;;;;;20.60;62.00;;;;;;5108776;28;19924;-66
2022/09/11 10:34:51;;;;;;;;;;;20.60;62.00;;;;;;5109522;28;20022;-66
2022/09/11 10:37:26;;;;;;;;;;;20.70;62.10;;;;;;5109721;28;20011;-66
2022/09/11 10:39:54;;;;;;;;;;;20.70;62.10;;;;;;5108189;28;20403;-66
2022/09/11 10:42:26;;;;;;;;;;;20.60;62.00;;;;;;5108222;28;19924;-66
2022/09/11 10:44:53;;;;;;;;;;;20.70;62.00;;;;;;5108419;28;19920;-66
2022/09/11 10:55:41;;;;;;;;;;;20.70;61.90;;;;;;5130611;27;19911;-66
2022/09/11 10:58:12;;;;;;;;;;;20.60;61.80;;;;;;5112211;28;20385;-66
2022/09/11 11:00:37;;;;;;;;;;;20.70;61.90;;;;;;5112454;28;19920;-66
2022/09/11 11:03:08;;;;;;;;;;;20.70;61.80;;;;;;5112241;28;19988;-66
2022/09/11 11:11:16;;;;;;;;;;;20.70;61.80;;;;;;5089213;28;19948;-66
2022/09/11 11:19:16;;;;;;;;;;;20.70;61.80;;;;;;5089887;28;19916;-66
2022/09/11 11:24:41;;;;;;;;;;;20.70;61.70;;;;;;5089935;28;19918;-66
2022/09/11 11:27:27;;;;;;;;;;;20.70;61.80;;;;;;5105292;28;19970;-66
2022/09/11 11:33:08;;;;;;;;;;;20.70;61.70;;;;;;5110160;27;19912;-66
2022/09/11 11:35:40;;;;;;;;;;;20.70;61.70;;;;;;5110050;28;19959;-66
2022/09/11 11:38:26;;;;;;;;;;;20.70;61.70;;;;;;5109084;28;19974;-66
2022/09/11 11:40:55;;;;;;;;;;;20.70;61.70;;;;;;5108870;28;19967;-66
2022/09/11 11:43:24;;;;;;;;;;;20.70;61.70;;;;;;5108795;28;19924;-66
2022/09/11 11:45:56;;;;;;;;;;;20.70;61.70;;;;;;5109075;28;19920;-66
2022/09/11 11:48:43;;;;;;;;;;;20.70;61.70;;;;;;5108943;28;20172;-66
2022/09/11 11:51:10;;;;;;;;;;;20.70;61.70;;;;;;5108543;28;19967;-66
2022/09/11 11:56:27;;;;;;;;;;;20.70;61.70;;;;;;5089901;28;19912;-66
2022/09/11 11:58:56;;;;;;;;;;;20.70;61.60;;;;;;5088523;28;20015;-66
2022/09/11 12:01:38;;;;;;;;;;;20.80;61.70;;;;;;5088851;28;19978;-66
2022/09/11 12:04:16;;;;;;;;;;;20.70;61.70;;;;;;5088551;28;19966;-67
2022/09/11 12:06:42;;;;;;;;;;;20.70;61.70;;;;;;5088841;28;20384;-67
2022/09/11 12:09:09;;;;;;;;;;;20.80;61.70;;;;;;5088720;28;19928;-66
2022/09/11 12:11:35;;;;;;;;;;;20.70;61.70;;;;;;5088370;28;19931;-67
2022/09/11 12:14:01;;;;;;;;;;;20.70;61.70;;;;;;5088465;28;20015;-66
2022/09/11 12:16:30;;;;;;;;;;;20.70;61.70;;;;;;5089601;28;20014;-66
2022/09/11 12:19:03;;;;;;;;;;;20.70;61.70;;;;;;5089538;28;19921;-66
2022/09/11 12:24:11;;;;;;;;;;;20.70;61.70;;;;;;5089812;28;19916;-66
2022/09/11 12:26:36;;;;;;;;;;;20.70;61.70;;;;;;5088841;28;19924;-67
2022/09/11 12:37:25;;;;;;;;;;;20.70;61.70;;;;;;5089944;28;20372;-67
2022/09/11 12:39:52;;;;;;;;;;;20.70;61.70;;;;;;5089943;28;20269;-67
2022/09/11 12:45:03;;;;;;;;;;;20.70;61.70;;;;;;5089761;28;19912;-67
2022/09/11 12:47:33;;;;;;;;;;;20.70;61.80;;;;;;5088615;28;20364;-67
2022/09/11 12:50:17;;;;;;;;;;;20.70;61.80;;;;;;5088875;28;19974;-67
2022/09/11 12:55:43;;;;;;;;;;;20.80;61.90;;;;;;5110181;27;20283;-67
2022/09/11 12:58:27;;;;;;;;;;;20.80;61.90;;;;;;5109122;28;20006;-67
2022/09/11 13:01:12;;;;;;;;;;;20.70;61.90;;;;;;5109226;28;19920;-67
2022/09/11 13:03:45;;;;;;;;;;;20.80;62.00;;;;;;5109856;28;19920;-67
2022/09/11 13:06:12;;;;;;;;;;;20.70;62.00;;;;;;5108747;28;19926;-67
2022/09/11 13:11:42;;;;;;;;;;;20.70;61.90;;;;;;5089958;28;19919;-67
2022/09/11 13:14:27;;;;;;;;;;;20.80;61.90;;;;;;5088813;28;19978;-67
2022/09/11 13:16:57;;;;;;;;;;;20.80;62.00;;;;;;5088343;28;19920;-67
2022/09/11 13:19:30;;;;;;;;;;;20.80;62.00;;;;;;5088573;28;19920;-67
2022/09/11 13:21:55;;;;;;;;;;;20.70;61.90;;;;;;5088413;28;20406;-67
2022/09/11 13:24:24;;;;;;;;;;;20.80;62.00;;;;;;5088208;28;20015;-67
2022/09/11 13:26:54;;;;;;;;;;;20.70;61.90;;;;;;5088304;28;20007;-67
2022/09/11 13:29:21;;;;;;;;;;;20.80;62.00;;;;;;5088458;28;20206;-69
2022/09/11 13:31:46;;;;;;;;;;;20.80;62.00;;;;;;5089466;28;20028;-69
2022/09/11 13:34:14;;;;;;;;;;;20.80;62.00;;;;;;5089425;28;20388;-69
2022/09/11 13:36:40;;;;;;;;;;;20.80;62.00;;;;;;5088412;28;19921;-69
2022/09/11 13:39:06;;;;;;;;;;;20.80;62.00;;;;;;5088125;28;20452;-69
2022/09/11 13:41:36;;;;;;;;;;;20.80;62.10;;;;;;5088284;28;20003;-75
2022/09/11 13:44:02;;;;;;;;;;;20.80;62.00;;;;;;5089547;28;19956;-69
2022/09/11 13:46:30;;;;;;;;;;;20.80;62.20;;;;;;5089370;28;19967;-69
2022/09/11 13:48:58;;;;;;;;;;;20.80;62.00;;;;;;5087891;28;19920;-69
2022/09/11 13:51:28;;;;;;;;;;;20.80;62.00;;;;;;5088125;28;19924;-69
2022/09/11 13:53:55;;;;;;;;;;;20.80;62.10;;;;;;5105206;28;19942;-69
2022/09/11 13:56:40;;;;;;;;;;;20.80;62.10;;;;;;5104925;28;19920;-69
2022/09/11 13:59:25;;;;;;;;;;;20.80;62.10;;;;;;5089235;28;19980;-70
2022/09/11 14:01:52;;;;;;;;;;;20.80;62.30;;;;;;5088845;28;19975;-69
2022/09/11 14:04:20;;;;;;;;;;;20.80;62.20;;;;;;5104639;28;19946;-69
2022/09/11 14:06:45;;;;;;;;;;;20.80;62.10;;;;;;5087577;28;20065;-70
2022/09/11 14:09:14;;;;;;;;;;;20.80;62.20;;;;;;5088516;28;19985;-69
2022/09/11 14:11:40;;;;;;;;;;;20.80;62.30;;;;;;5087402;28;19924;-69
2022/09/11 14:14:09;;;;;;;;;;;20.90;62.30;;;;;;5087356;28;19927;-69
2022/09/11 14:16:36;;;;;;;;;;;20.80;62.10;;;;;;5087679;28;19928;-69
2022/09/11 14:19:20;;;;;;;;;;;20.90;62.30;;;;;;5088637;28;19920;-69
2022/09/11 14:21:46;;;;;;;;;;;20.90;62.40;;;;;;5079538;28;19931;-69
2022/09/11 14:24:31;;;;;;;;;;;20.90;62.40;;;;;;5073760;28;20015;-69
2022/09/11 14:27:00;;;;;;;;;;;20.90;62.50;;;;;;5090957;28;19931;-69
2022/09/11 14:29:27;;;;;;;;;;;20.80;62.40;;;;;;5075012;28;19927;-69
2022/09/11 14:31:53;;;;;;;;;;;20.90;62.50;;;;;;5073800;28;19951;-69
2022/09/11 14:34:24;;;;;;;;;;;20.90;63.30;;;;;;5074788;28;20356;-69
2022/09/11 14:39:34;;;;;;;;;;;20.90;62.60;;;;;;5089869;28;19912;-67
2022/09/11 14:42:01;;;;;;;;;;;20.90;62.50;;;;;;5088445;28;20384;-67
2022/09/11 14:44:27;;;;;;;;;;;20.90;62.60;;;;;;5088789;28;20284;-67
2022/09/11 14:46:53;;;;;;;;;;;20.90;62.50;;;;;;5088346;28;19930;-67
2022/09/11 14:49:19;;;;;;;;;;;20.90;62.50;;;;;;5088790;28;19926;-67
2022/09/11 14:51:48;;;;;;;;;;;20.90;62.60;;;;;;5088708;28;20031;-67
2022/09/11 14:54:14;;;;;;;;;;;20.90;62.70;;;;;;5089684;28;20421;-67
2022/09/11 14:56:40;;;;;;;;;;;20.90;62.70;;;;;;5088373;28;19921;-67
2022/09/11 14:59:06;;;;;;;;;;;20.90;62.70;;;;;;5088140;28;19924;-67
2022/09/11 15:01:32;;;;;;;;;;;20.90;62.80;;;;;;5088228;28;19920;-67
2022/09/11 15:03:58;;;;;;;;;;;20.90;62.70;;;;;;5088479;28;19920;-73
2022/09/11 15:06:24;;;;;;;;;;;20.90;62.70;;;;;;5089591;28;20312;-67
2022/09/11 15:08:50;;;;;;;;;;;20.90;62.70;;;;;;5088043;28;20015;-67
2022/09/11 15:11:16;;;;;;;;;;;20.90;62.80;;;;;;5087299;28;19927;-67
2022/09/11 15:13:43;;;;;;;;;;;20.90;62.80;;;;;;5089047;28;19920;-67
2022/09/11 15:16:09;;;;;;;;;;;20.90;62.90;;;;;;5089110;28;20269;-67
2022/09/11 15:18:34;;;;;;;;;;;21.00;63.00;;;;;;5087929;28;19931;-67
2022/09/11 15:21:00;;;;;;;;;;;20.90;62.90;;;;;;5088168;28;20338;-67
2022/09/11 15:23:26;;;;;;;;;;;20.90;63.10;;;;;;5088064;28;20391;-67
2022/09/11 15:26:00;;;;;;;;;;;20.90;63.00;;;;;;5089492;28;20027;-67
2022/09/11 15:28:28;;;;;;;;;;;20.90;63.10;;;;;;5088015;28;20299;-67
2022/09/11 15:30:57;;;;;;;;;;;20.90;63.20;;;;;;5088850;28;20302;-67
2022/09/11 15:33:23;;;;;;;;;;;20.90;63.20;;;;;;5087648;28;19974;-67
2022/09/11 15:35:49;;;;;;;;;;;20.90;63.40;;;;;;5087844;28;19921;-67
2022/09/11 15:38:14;;;;;;;;;;;20.90;63.40;;;;;;5098608;28;19924;-67
2022/09/11 15:40:40;;;;;;;;;;;20.90;63.40;;;;;;5109071;28;19920;-67
2022/09/11 15:43:05;;;;;;;;;;;20.90;63.50;;;;;;5109118;28;19920;-67
2022/09/11 15:45:31;;;;;;;;;;;20.90;63.60;;;;;;5108920;28;19920;-71
2022/09/11 15:47:58;;;;;;;;;;;21.00;63.50;;;;;;5109169;28;19945;-67
2022/09/11 15:50:27;;;;;;;;;;;20.90;63.50;;;;;;5079866;28;19962;-67
2022/09/11 15:52:52;;;;;;;;;;;20.90;63.50;;;;;;5095299;28;19923;-67
2022/09/11 15:55:18;;;;;;;;;;;20.90;63.50;;;;;;5077378;28;20336;-67
2022/09/11 15:57:44;;;;;;;;;;;20.90;63.70;;;;;;5077112;28;19931;-67
2022/09/11 16:00:09;;;;;;;;;;;20.90;63.70;;;;;;5095530;28;19920;-67
2022/09/11 16:02:35;;;;;;;;;;;20.90;63.70;;;;;;5077256;28;20006;-67
2022/09/11 16:05:00;;;;;;;;;;;20.90;63.70;;;;;;5094068;28;20368;-67
2022/09/11 16:07:26;;;;;;;;;;;20.90;63.80;;;;;;5095022;28;19927;-67